CZEM/ZEM METAR and TAF weather

Enter ICAO airport designator
Station Type Date Time Source
CZEM METAR 2024/05/28 20:00 UTC NOAA

CZEM 282000Z 33023G40KT 15SM SKC 05/01 A2987 RMK LAST STFD OBS/NEXT 291300 UTC SLP118


Station Type Date Time Source
CZEM Decoded METAR 2024/05/28 20:00 UTC NOAA

Eastmain River Airport, Canada (CZEM) 52-14N 078-31W
May 28, 2024 - 04:00 PM EDT / 2024.05.28 2000 UTC
Wind: from the NNW (330 degrees) at 26 MPH (23 KT) gusting to 46 MPH (40 KT):0
Visibility: 15 mile(s):0
Sky conditions: clear
Temperature: 41 F (5 C)
Dew Point: 33 F (1 C)
Relative Humidity: 75%
Pressure (altimeter): 29.87 in. Hg (1011 hPa)
ob: CZEM 282000Z 33023G40KT 15SM SKC 05/01 A2987 RMK LAST STFD OBS/NEXT 291300 UTC SLP118
cycle: 20

Station Type Date Time Source
CZEM TAF UTC NOAA

Error!

Example: see airport list